This is the latest recevied weather packets stored in our database for station/object W2OBX. If no packets are shown the sender has not sent any weather packets the latest 10 day(s).
| Time | Temp. | Humidity | Pressure | Rain* | Wind** | Luminosity | Snow |
|---|---|---|---|---|---|---|---|
| 1777499541 | 21.11° C | 90% | 1010.4 hPa | 0 mm | - | 26 W/m² | - |
| 1777499240 | 20.56° C | 92% | 1010.4 hPa | 0 mm | - | 34 W/m² | - |
| 1777498936 | 20.56° C | 92% | 1010.4 hPa | 0 mm | - | 56 W/m² | - |
| 1777498633 | 20.56° C | 92% | 1010.4 hPa | 0 mm | - | 63 W/m² | - |
| 1777498329 | 20° C | 92% | 1010.3 hPa | 0 mm | - | 64 W/m² | - |
| 1777498027 | 20° C | 92% | 1010.5 hPa | 0 mm | - | 44 W/m² | - |
| 1777497724 | 20° C | 92% | 1010.5 hPa | 0 mm | - | 55 W/m² | - |
| 1777497420 | 20° C | 92% | 1010.5 hPa | 0 mm | - | 68 W/m² | - |
| 1777497115 | 20.56° C | 92% | 1010.4 hPa | 0 mm | - | 63 W/m² | - |
| 1777496813 | 20.56° C | 91% | 1010.6 hPa | 0 mm | - | 73 W/m² | - |
| 1777496509 | 20.56° C | 90% | 1010.7 hPa | 0 mm | - | 186 W/m² | - |
| 1777496206 | 21.11° C | 87% | 1010.8 hPa | 0 mm | - | 32 W/m² | - |
| 1777495902 | 21.67° C | 85% | 1010.6 hPa | 0 mm | - | 10 W/m² | - |
| 1777495598 | 21.67° C | 83% | 1010.7 hPa | 0 mm | - | 39 W/m² | - |
| 1777495293 | 22.22° C | 82% | 1010.7 hPa | 0 mm | - | 50 W/m² | - |
| 1777494992 | 22.22° C | 81% | 1010.6 hPa | 0 mm | - | 51 W/m² | - |
| 1777494688 | 22.22° C | 80% | 1010.6 hPa | 0 mm | - | 43 W/m² | - |
| 1777494386 | 22.78° C | 79% | 1010.6 hPa | 0 mm | - | 62 W/m² | - |
| 1777494082 | 22.78° C | 81% | 1010.6 hPa | 0 mm | - | 88 W/m² | - |
| 1777493780 | 22.78° C | 79% | 1010.9 hPa | 0 mm | - | 127 W/m² | - |
| 1777493478 | 22.22° C | 81% | 1010.8 hPa | 0 mm | - | 137 W/m² | - |
| 1777493174 | 22.22° C | 82% | 1010.9 hPa | 0 mm | - | 110 W/m² | - |
| 1777492871 | 22.22° C | 81% | 1011.1 hPa | 0 mm | - | 104 W/m² | - |
| 1777492568 | 22.22° C | 82% | 1011 hPa | 0 mm | - | 136 W/m² | - |
| 1777492263 | 21.67° C | 81% | 1011 hPa | 0 mm | - | 130 W/m² | - |
* Rain latest hour (hover to see other rain measurements)
** Current wind speed in m/s (hover to see current wind gust speed)